createdAt,value
2018-12-05T00:01:31.613Z,1.44
2018-12-05T00:04:01.124Z,1.46
2018-12-05T00:06:30.402Z,1.43
2018-12-05T00:09:00.111Z,1.43
2018-12-05T00:11:29.529Z,1.43
2018-12-05T00:13:58.824Z,1.38
2018-12-05T00:16:28.235Z,1.44
2018-12-05T00:18:57.731Z,1.43
2018-12-05T00:21:27.371Z,1.45
2018-12-05T00:23:57.155Z,1.53
2018-12-05T00:26:26.565Z,1.51
2018-12-05T00:28:56.176Z,1.51
2018-12-05T00:31:25.778Z,1.53
2018-12-05T00:33:55.464Z,1.56
2018-12-05T00:36:24.880Z,1.55
2018-12-05T00:38:54.215Z,1.54
2018-12-05T00:41:23.572Z,1.55
2018-12-05T00:43:53.060Z,1.47
2018-12-05T00:46:22.434Z,1.54
2018-12-05T00:48:51.997Z,1.56
2018-12-05T00:51:22.018Z,1.58
2018-12-05T00:53:51.401Z,1.59
2018-12-05T00:56:20.722Z,1.63
2018-12-05T00:58:51.084Z,1.65
2018-12-05T01:01:20.834Z,1.71
2018-12-05T01:03:50.272Z,1.74
2018-12-05T01:06:19.705Z,1.74
2018-12-05T01:08:49.307Z,1.57
2018-12-05T01:11:18.832Z,1.61
2018-12-05T01:13:48.390Z,1.63
2018-12-05T01:16:17.691Z,1.55
2018-12-05T01:18:47.196Z,1.56
2018-12-05T01:21:16.451Z,1.51
2018-12-05T01:23:46.037Z,1.53
2018-12-05T01:26:15.423Z,1.56
2018-12-05T01:28:44.860Z,1.57
2018-12-05T01:31:14.347Z,1.62
2018-12-05T01:33:43.895Z,1.62
2018-12-05T01:36:13.678Z,1.64
2018-12-05T01:38:43.118Z,1.61
2018-12-05T01:41:12.642Z,1.60
2018-12-05T01:43:47.922Z,1.61
2018-12-05T01:46:24.423Z,1.59
2018-12-05T01:48:54.143Z,1.57
2018-12-05T01:51:23.587Z,1.39
2018-12-05T01:53:53.124Z,1.48
2018-12-05T01:56:22.523Z,1.60
2018-12-05T01:58:51.983Z,1.60
2018-12-05T02:01:21.771Z,1.66
2018-12-05T02:03:51.232Z,1.49
2018-12-05T02:06:20.848Z,1.49
2018-12-05T02:08:50.479Z,1.46
2018-12-05T02:11:20.990Z,1.56
2018-12-05T02:13:51.073Z,1.54
2018-12-05T02:16:21.478Z,1.54
2018-12-05T02:18:51.368Z,1.50
2018-12-05T02:21:20.987Z,1.52
2018-12-05T02:23:51.185Z,1.53
2018-12-05T02:26:21.427Z,1.54
2018-12-05T02:28:50.890Z,1.46
2018-12-05T02:31:21.399Z,1.45
2018-12-05T02:33:52.768Z,1.56
2018-12-05T02:36:25.584Z,1.57
2018-12-05T02:38:56.016Z,1.65
2018-12-05T02:41:25.439Z,1.65
2018-12-05T02:43:57.529Z,1.64
2018-12-05T02:46:27.102Z,1.57
2018-12-05T02:48:56.562Z,1.64
2018-12-05T02:51:25.990Z,1.64
2018-12-05T02:53:55.796Z,1.66
2018-12-05T02:56:25.286Z,1.59
2018-12-05T02:58:54.770Z,1.62
2018-12-05T03:01:24.793Z,1.65
2018-12-05T03:03:54.966Z,1.63
2018-12-05T03:06:24.663Z,1.62
2018-12-05T03:08:53.936Z,1.55
2018-12-05T03:11:23.409Z,1.58
2018-12-05T03:13:53.134Z,1.62
2018-12-05T03:16:22.466Z,1.60
2018-12-05T03:18:53.412Z,1.64
2018-12-05T03:21:24.941Z,1.63
2018-12-05T03:23:55.239Z,1.62
2018-12-05T03:26:24.756Z,1.65
2018-12-05T03:28:54.106Z,1.68
2018-12-05T03:31:23.461Z,1.66
2018-12-05T03:33:52.980Z,1.72
2018-12-05T03:36:22.821Z,1.72
2018-12-05T03:38:56.701Z,1.75
2018-12-05T03:41:26.523Z,1.78
2018-12-05T03:43:56.836Z,1.74
2018-12-05T03:46:26.228Z,1.72
2018-12-05T03:48:55.531Z,1.64
2018-12-05T03:51:25.255Z,1.66
2018-12-05T03:53:54.554Z,1.64
2018-12-05T03:56:23.904Z,1.72
2018-12-05T03:58:53.165Z,1.71
2018-12-05T04:01:22.580Z,1.72
2018-12-05T04:03:51.963Z,1.71
2018-12-05T04:06:21.558Z,1.77
2018-12-05T04:08:50.866Z,1.75
2018-12-05T04:11:20.269Z,1.74
2018-12-05T04:13:49.787Z,1.72
2018-12-05T04:16:19.070Z,1.70
2018-12-05T04:18:48.861Z,1.70
2018-12-05T04:21:18.315Z,1.67
2018-12-05T04:23:47.668Z,1.70
2018-12-05T04:26:17.094Z,1.60
2018-12-05T04:28:46.599Z,1.71
2018-12-05T04:31:16.454Z,1.75
2018-12-05T04:33:45.916Z,1.80
2018-12-05T04:36:15.557Z,1.89
2018-12-05T04:38:45.062Z,1.89
2018-12-05T04:41:14.441Z,1.86
2018-12-05T04:43:43.876Z,1.80
2018-12-05T04:46:13.151Z,1.70
2018-12-05T04:48:42.549Z,1.77
2018-12-05T04:51:12.149Z,1.79
2018-12-05T04:53:41.772Z,1.83
2018-12-05T04:56:11.446Z,1.85
2018-12-05T04:58:40.834Z,1.83
2018-12-05T05:01:10.116Z,1.84
2018-12-05T05:03:39.428Z,1.82
2018-12-05T05:06:08.855Z,1.85
2018-12-05T05:08:38.424Z,1.85
2018-12-05T05:11:07.799Z,1.85
2018-12-05T05:13:37.428Z,1.88
2018-12-05T05:16:06.900Z,1.90
2018-12-05T05:18:36.382Z,1.90
2018-12-05T05:21:05.948Z,1.99
2018-12-05T05:23:35.428Z,2.01
2018-12-05T05:26:06.128Z,1.94
2018-12-05T05:28:35.391Z,1.94
2018-12-05T05:31:04.665Z,2.03
2018-12-05T05:33:34.312Z,2.11
2018-12-05T05:36:03.743Z,2.06
2018-12-05T05:38:33.080Z,2.16
2018-12-05T05:41:02.484Z,2.15
2018-12-05T05:43:31.979Z,2.32
2018-12-05T05:46:02.034Z,2.39
2018-12-05T05:48:31.518Z,2.40
2018-12-05T05:51:01.019Z,2.62
2018-12-05T05:53:30.410Z,2.80
2018-12-05T05:55:59.693Z,2.77
2018-12-05T05:58:29.501Z,2.90
2018-12-05T06:00:59.089Z,3.32
2018-12-05T06:03:28.396Z,3.53
2018-12-05T06:05:57.698Z,3.54
2018-12-05T06:08:27.163Z,3.67
2018-12-05T06:10:56.782Z,3.69
2018-12-05T06:13:26.201Z,3.76
2018-12-05T06:15:55.933Z,3.80
2018-12-05T06:18:25.623Z,3.92
2018-12-05T06:20:55.321Z,3.88
2018-12-05T06:23:25.122Z,3.96
2018-12-05T06:25:55.044Z,3.93
2018-12-05T06:28:24.659Z,3.93
2018-12-05T06:30:54.128Z,3.98
2018-12-05T06:33:23.856Z,3.99
2018-12-05T06:35:53.729Z,4.00
2018-12-05T06:38:23.435Z,3.95
2018-12-05T06:40:52.975Z,3.95
2018-12-05T06:43:22.479Z,3.99
2018-12-05T06:45:51.995Z,4.00
2018-12-05T06:48:21.728Z,4.01
2018-12-05T06:50:51.215Z,4.02
2018-12-05T06:53:20.682Z,3.98
2018-12-05T06:55:50.116Z,3.99
2018-12-05T06:58:19.832Z,4.03
2018-12-05T07:07:36.990Z,3.90
2018-12-05T07:10:06.621Z,3.83
2018-12-05T07:12:36.413Z,3.85
2018-12-05T07:15:06.211Z,3.85
2018-12-05T07:17:35.616Z,3.88
2018-12-05T07:20:06.056Z,3.93
2018-12-05T07:22:35.791Z,3.88
2018-12-05T07:25:05.723Z,3.86
2018-12-05T07:27:35.353Z,3.87
2018-12-05T07:30:20.849Z,3.84
2018-12-05T07:32:51.607Z,3.88
2018-12-05T07:35:21.896Z,3.93
2018-12-05T07:37:53.483Z,3.92
2018-12-05T07:40:24.432Z,3.87
2018-12-05T07:42:54.062Z,3.95
2018-12-05T07:45:24.438Z,3.96
2018-12-05T07:47:54.952Z,3.94
2018-12-05T07:50:25.871Z,3.83
2018-12-05T07:52:56.715Z,3.80
2018-12-05T07:55:27.219Z,3.75
2018-12-05T07:57:57.371Z,3.68
2018-12-05T08:00:27.447Z,3.68
2018-12-05T08:02:57.309Z,3.64
2018-12-05T08:05:27.062Z,3.67
2018-12-05T08:07:56.765Z,3.66
2018-12-05T08:10:26.476Z,3.86
2018-12-05T08:12:56.004Z,4.15
2018-12-05T08:15:25.373Z,4.44
2018-12-05T08:17:55.208Z,4.61
2018-12-05T08:20:25.000Z,4.87
2018-12-05T08:22:54.613Z,4.78
2018-12-05T08:25:24.353Z,4.80
2018-12-05T08:27:53.959Z,4.86
2018-12-05T08:30:23.379Z,4.98
2018-12-05T08:32:53.462Z,4.78
2018-12-05T08:35:23.129Z,4.69
2018-12-05T08:37:52.897Z,4.52
2018-12-05T08:40:22.230Z,4.55
2018-12-05T08:42:52.038Z,4.62
2018-12-05T08:45:21.495Z,4.63
2018-12-05T08:47:50.903Z,5.24
2018-12-05T08:50:20.547Z,5.13
2018-12-05T08:52:50.011Z,5.09
2018-12-05T08:55:19.328Z,5.16
2018-12-05T08:57:49.324Z,5.37
2018-12-05T09:00:18.971Z,5.79
2018-12-05T09:02:49.379Z,6.35
2018-12-05T09:05:20.177Z,6.32
2018-12-05T09:07:49.787Z,5.39
2018-12-05T09:10:19.373Z,5.29
2018-12-05T09:12:48.896Z,5.23
2018-12-05T09:15:18.356Z,5.20
2018-12-05T09:17:47.736Z,5.21
2018-12-05T09:20:17.594Z,5.38
2018-12-05T09:22:47.056Z,5.30
2018-12-05T09:25:16.631Z,5.59
2018-12-05T09:27:46.475Z,5.51
2018-12-05T09:30:16.698Z,5.53
2018-12-05T09:32:46.308Z,5.41
2018-12-05T09:35:15.911Z,4.94
2018-12-05T09:37:45.165Z,4.64
2018-12-05T09:40:14.624Z,4.57
2018-12-05T09:42:44.157Z,4.69
2018-12-05T09:45:14.986Z,4.64
2018-12-05T09:47:44.479Z,4.63
2018-12-05T09:50:13.807Z,4.60
2018-12-05T09:52:43.392Z,4.54
2018-12-05T09:55:12.670Z,4.36
2018-12-05T09:57:42.232Z,4.37
2018-12-05T10:00:11.949Z,4.35
2018-12-05T10:02:41.510Z,4.41
2018-12-05T10:05:11.273Z,4.45
2018-12-05T10:07:43.321Z,4.43
2018-12-05T10:10:13.432Z,4.44
2018-12-05T10:12:43.079Z,4.35
2018-12-05T10:15:14.346Z,4.19
2018-12-05T10:17:47.764Z,4.15
2018-12-05T10:20:17.517Z,4.18
2018-12-05T10:22:47.035Z,4.16
2018-12-05T10:25:16.861Z,4.19
2018-12-05T10:27:47.013Z,4.23
2018-12-05T10:30:16.638Z,4.33
2018-12-05T10:32:46.894Z,4.16
2018-12-05T10:35:16.198Z,4.03
2018-12-05T10:37:45.773Z,4.11
2018-12-05T10:40:15.290Z,4.17
2018-12-05T10:42:46.051Z,4.15
2018-12-05T10:45:15.553Z,4.30
2018-12-05T10:47:44.996Z,4.41
2018-12-05T10:50:15.247Z,4.30
2018-12-05T10:52:44.824Z,4.23
2018-12-05T10:55:14.317Z,4.14
2018-12-05T10:57:44.333Z,4.11
2018-12-05T11:00:21.095Z,4.13
2018-12-05T11:02:56.199Z,4.26
2018-12-05T11:05:30.030Z,4.33
2018-12-05T11:08:04.857Z,4.28
2018-12-05T11:10:39.389Z,4.23
2018-12-05T11:13:14.150Z,4.03
2018-12-05T11:15:48.844Z,4.05
2018-12-05T11:18:23.854Z,4.03
2018-12-05T11:20:58.333Z,4.10
2018-12-05T11:23:33.695Z,4.23
2018-12-05T11:26:07.215Z,4.21
2018-12-05T11:28:37.314Z,4.24
2018-12-05T11:31:06.614Z,4.14
2018-12-05T11:33:36.418Z,4.06
2018-12-05T11:36:05.991Z,3.99
2018-12-05T11:38:35.470Z,3.93
2018-12-05T11:41:04.871Z,3.82
2018-12-05T11:43:34.568Z,3.89
2018-12-05T11:46:04.005Z,3.91
2018-12-05T11:48:33.442Z,3.91
2018-12-05T11:51:03.018Z,3.82
2018-12-05T11:53:32.469Z,3.77
2018-12-05T11:56:01.871Z,3.76
2018-12-05T11:58:31.813Z,3.79
2018-12-05T12:01:01.843Z,3.76
2018-12-05T12:03:31.538Z,3.72
2018-12-05T12:06:01.036Z,3.59
2018-12-05T12:08:30.613Z,3.52
2018-12-05T12:11:00.406Z,3.52
2018-12-05T12:13:29.722Z,3.55
2018-12-05T12:15:59.122Z,3.63
2018-12-05T12:18:29.020Z,3.66
2018-12-05T12:20:58.917Z,3.72
2018-12-05T12:23:28.874Z,3.72
2018-12-05T12:25:58.560Z,3.71
2018-12-05T12:28:28.463Z,3.72
2018-12-05T12:30:57.991Z,3.59
2018-12-05T12:33:27.759Z,3.60
2018-12-05T12:35:58.341Z,3.72
2018-12-05T12:38:28.946Z,3.69
2018-12-05T12:40:58.592Z,3.64
2018-12-05T12:43:28.400Z,3.63
2018-12-05T12:45:58.175Z,3.60
2018-12-05T12:48:27.541Z,3.53
2018-12-05T12:50:57.270Z,3.40
2018-12-05T12:53:26.532Z,3.30
2018-12-05T12:55:56.183Z,3.35
2018-12-05T12:58:25.845Z,3.37
2018-12-05T13:00:55.451Z,3.39
2018-12-05T13:03:25.289Z,3.34
2018-12-05T13:05:54.688Z,3.32
2018-12-05T13:08:23.948Z,3.37
2018-12-05T13:10:53.574Z,3.44
2018-12-05T13:13:23.119Z,3.43
2018-12-05T13:15:52.803Z,3.35
2018-12-05T13:18:22.173Z,3.29
2018-12-05T13:20:52.043Z,3.22
2018-12-05T13:23:21.596Z,3.20
2018-12-05T13:25:51.401Z,3.13
2018-12-05T13:28:21.324Z,3.06
2018-12-05T13:30:50.903Z,3.04
2018-12-05T13:33:20.361Z,2.97
2018-12-05T13:35:52.262Z,3.06
2018-12-05T13:38:21.774Z,3.12
2018-12-05T13:40:51.334Z,3.06
2018-12-05T13:43:20.983Z,3.05
2018-12-05T13:45:50.677Z,3.07
2018-12-05T13:48:20.203Z,3.12
2018-12-05T13:50:50.323Z,3.05
2018-12-05T13:53:19.973Z,2.98
2018-12-05T13:55:50.160Z,2.95
2018-12-05T13:58:20.214Z,2.90
2018-12-05T14:00:49.810Z,2.86
2018-12-05T14:03:19.246Z,2.95
2018-12-05T14:05:49.162Z,3.02
2018-12-05T14:08:18.623Z,2.98
2018-12-05T14:10:48.152Z,2.96
2018-12-05T14:13:18.410Z,2.94
2018-12-05T14:15:47.769Z,2.88
2018-12-05T14:18:17.265Z,2.77
2018-12-05T14:20:46.943Z,2.79
2018-12-05T14:23:16.457Z,2.71
2018-12-05T14:25:48.187Z,2.61
2018-12-05T14:28:17.926Z,2.61
2018-12-05T14:30:47.530Z,2.68
2018-12-05T14:33:17.119Z,2.60
2018-12-05T14:35:47.050Z,2.66
2018-12-05T14:38:16.419Z,2.64
2018-12-05T14:40:45.671Z,2.69
2018-12-05T14:43:15.426Z,2.62
2018-12-05T14:45:44.673Z,2.62
2018-12-05T14:48:14.260Z,2.52
2018-12-05T14:50:44.321Z,2.54
2018-12-05T14:53:13.942Z,2.50
2018-12-05T14:55:43.521Z,2.49
2018-12-05T14:58:13.486Z,2.50
2018-12-05T15:00:43.031Z,2.47
2018-12-05T15:03:12.693Z,2.47
2018-12-05T15:05:42.500Z,2.50
2018-12-05T15:08:12.025Z,2.51
2018-12-05T15:10:41.753Z,2.56
2018-12-05T15:13:11.042Z,2.51
2018-12-05T15:15:40.567Z,2.47
2018-12-05T15:18:10.181Z,2.40
2018-12-05T15:20:39.764Z,2.43
2018-12-05T15:23:09.480Z,2.37
2018-12-05T15:25:39.536Z,2.32
2018-12-05T15:28:09.137Z,2.39
2018-12-05T15:30:38.711Z,2.38
2018-12-05T15:33:08.592Z,2.36
2018-12-05T15:35:38.036Z,2.30
2018-12-05T15:38:07.514Z,2.31
2018-12-05T15:40:37.532Z,2.30
2018-12-05T15:43:06.954Z,2.33
2018-12-05T15:45:36.659Z,2.29
2018-12-05T15:50:47.098Z,2.30
2018-12-05T15:53:16.621Z,2.35
2018-12-05T15:55:46.364Z,2.29
2018-12-05T15:58:16.292Z,2.25
2018-12-05T16:00:46.110Z,2.24
2018-12-05T16:03:15.613Z,2.24
2018-12-05T16:05:45.451Z,2.22
2018-12-05T16:08:14.939Z,2.19
2018-12-05T16:10:44.602Z,2.26
2018-12-05T16:13:14.525Z,2.21
2018-12-05T16:15:44.257Z,2.24
2018-12-05T16:18:13.977Z,2.22
2018-12-05T16:20:43.588Z,2.17
2018-12-05T16:23:12.904Z,2.21
2018-12-05T16:25:42.452Z,2.21
2018-12-05T16:28:12.489Z,2.22
2018-12-05T16:30:41.897Z,2.23
2018-12-05T16:33:11.849Z,2.22
2018-12-05T16:35:41.791Z,2.29
2018-12-05T16:38:11.560Z,2.34
2018-12-05T16:40:41.323Z,2.40
2018-12-05T16:43:11.093Z,2.41
2018-12-05T16:45:40.706Z,2.33
2018-12-05T16:48:10.196Z,2.25
2018-12-05T16:50:41.402Z,2.28
2018-12-05T16:53:10.820Z,2.23
2018-12-05T16:55:40.440Z,2.24
2018-12-05T16:58:10.153Z,2.23
2018-12-05T17:00:39.883Z,2.18
2018-12-05T17:03:09.593Z,2.16
2018-12-05T17:05:39.474Z,2.10
2018-12-05T17:08:09.106Z,2.14
2018-12-05T17:10:38.794Z,2.16
2018-12-05T17:13:09.330Z,2.16
2018-12-05T17:15:39.059Z,2.19
2018-12-05T17:18:08.775Z,2.21
2018-12-05T17:20:38.256Z,2.17
2018-12-05T17:23:08.011Z,2.14
2018-12-05T17:25:37.661Z,2.18
2018-12-05T17:28:07.143Z,2.15
2018-12-05T17:30:36.664Z,2.06
2018-12-05T17:33:06.008Z,2.12
2018-12-05T17:35:36.153Z,2.13
2018-12-05T17:38:05.615Z,2.25
2018-12-05T17:40:35.273Z,2.22
2018-12-05T17:43:04.929Z,2.08
2018-12-05T17:45:34.504Z,2.05
2018-12-05T17:48:03.904Z,2.06
2018-12-05T17:50:34.084Z,2.03
2018-12-05T17:53:03.563Z,1.99
2018-12-05T17:55:33.246Z,1.99
2018-12-05T17:58:03.214Z,2.02
2018-12-05T18:00:32.706Z,1.93
2018-12-05T18:03:02.339Z,1.97
2018-12-05T18:05:32.116Z,1.95
2018-12-05T18:08:01.787Z,1.94
2018-12-05T18:10:31.251Z,1.93
2018-12-05T18:13:01.194Z,1.87
2018-12-05T18:15:30.768Z,1.86
2018-12-05T18:18:00.493Z,1.83
2018-12-05T18:20:30.234Z,1.91
2018-12-05T18:22:59.690Z,1.85
2018-12-05T18:25:29.501Z,1.84
2018-12-05T18:27:59.368Z,1.83
2018-12-05T18:30:28.946Z,1.78
2018-12-05T18:32:58.636Z,1.77
2018-12-05T18:35:28.741Z,1.81
2018-12-05T18:37:58.113Z,1.84
2018-12-05T18:40:27.422Z,1.82
2018-12-05T18:42:57.108Z,1.83
2018-12-05T18:45:26.703Z,1.84
2018-12-05T18:47:56.182Z,1.82
2018-12-05T18:50:26.462Z,1.78
2018-12-05T18:52:56.222Z,1.73
2018-12-05T18:55:25.900Z,1.78
2018-12-05T18:57:55.470Z,1.79
2018-12-05T19:00:24.956Z,1.73
2018-12-05T19:02:54.470Z,1.72
2018-12-05T19:05:24.501Z,1.77
2018-12-05T19:07:54.245Z,1.73
2018-12-05T19:10:23.787Z,1.69
2018-12-05T19:12:54.045Z,1.58
2018-12-05T19:15:24.201Z,1.62
2018-12-05T19:17:53.736Z,1.70
2018-12-05T19:20:23.872Z,1.80
2018-12-05T19:22:53.345Z,1.79
2018-12-05T19:25:22.963Z,1.74
2018-12-05T19:27:52.920Z,1.62
2018-12-05T19:30:22.504Z,1.62
2018-12-05T19:32:52.214Z,1.61
2018-12-05T19:35:21.832Z,1.57
2018-12-05T19:37:51.437Z,1.50
2018-12-05T19:40:21.164Z,1.59
2018-12-05T19:42:51.041Z,1.51
2018-12-05T19:45:20.668Z,1.49
2018-12-05T19:47:50.349Z,1.53
2018-12-05T19:50:20.051Z,1.50
2018-12-05T19:52:49.620Z,1.49
2018-12-05T19:55:19.256Z,1.45
2018-12-05T19:57:48.836Z,1.41
2018-12-05T20:00:18.371Z,1.43
2018-12-05T20:02:47.806Z,1.40
2018-12-05T20:05:17.817Z,1.41
2018-12-05T20:07:47.554Z,1.41
2018-12-05T20:10:17.285Z,1.41
2018-12-05T20:12:48.276Z,1.45
2018-12-05T20:15:17.708Z,1.39
2018-12-05T20:17:47.410Z,1.39
2018-12-05T20:20:17.237Z,1.40
2018-12-05T20:22:47.144Z,1.43
2018-12-05T20:25:16.955Z,1.53
2018-12-05T20:27:47.092Z,1.50
2018-12-05T20:30:16.791Z,1.43
2018-12-05T20:32:46.344Z,1.35
2018-12-05T20:35:16.226Z,1.38
2018-12-05T20:37:45.815Z,1.34
2018-12-05T20:40:16.123Z,1.33
2018-12-05T20:42:46.788Z,1.33
2018-12-05T20:45:17.863Z,1.33
2018-12-05T20:47:47.692Z,1.36
2018-12-05T20:50:19.123Z,1.25
2018-12-05T20:52:49.393Z,1.25
2018-12-05T20:55:19.011Z,1.27
2018-12-05T20:57:48.505Z,1.21
2018-12-05T21:00:18.183Z,1.19
2018-12-05T21:02:47.831Z,1.18
2018-12-05T21:05:17.406Z,1.26
2018-12-05T21:07:47.242Z,1.11
2018-12-05T21:10:16.860Z,1.09
2018-12-05T21:12:46.559Z,1.10
2018-12-05T21:15:16.339Z,1.06
2018-12-05T21:17:45.787Z,1.03
2018-12-05T21:20:15.453Z,1.07
2018-12-05T21:22:47.147Z,1.06
2018-12-05T21:25:14.813Z,1.09
2018-12-05T21:27:44.965Z,1.03
2018-12-05T21:30:14.665Z,1.06
2018-12-05T21:32:44.315Z,1.09
2018-12-05T21:35:14.228Z,1.11
2018-12-05T21:37:43.880Z,1.04
2018-12-05T21:40:13.397Z,1.13
2018-12-05T21:42:44.136Z,1.14
2018-12-05T21:45:14.452Z,1.03
2018-12-05T21:47:44.059Z,0.96
2018-12-05T21:50:13.999Z,1.00
2018-12-05T21:52:43.491Z,1.07
2018-12-05T21:55:13.040Z,1.03
2018-12-05T21:57:42.519Z,0.99
2018-12-05T22:00:13.066Z,1.02
2018-12-05T22:02:42.641Z,0.95
2018-12-05T22:05:12.593Z,1.01
2018-12-05T22:07:42.307Z,1.03
2018-12-05T22:10:12.023Z,1.07
2018-12-05T22:12:41.769Z,1.00
2018-12-05T22:15:11.204Z,0.99
2018-12-05T22:17:40.688Z,1.01
2018-12-05T22:20:10.933Z,1.00
2018-12-05T22:22:40.444Z,0.94
2018-12-05T22:25:10.044Z,1.04
2018-12-05T22:27:39.671Z,1.08
2018-12-05T22:30:09.812Z,1.08
2018-12-05T22:32:39.437Z,0.95
2018-12-05T22:35:09.656Z,0.93
2018-12-05T22:37:39.360Z,0.94
2018-12-05T22:40:09.694Z,0.92
2018-12-05T22:42:39.643Z,0.87
2018-12-05T22:45:09.299Z,0.91
2018-12-05T22:47:38.872Z,0.92
2018-12-05T22:50:09.209Z,0.83
2018-12-05T22:52:38.988Z,0.83
2018-12-05T22:55:08.538Z,0.83
2018-12-05T22:57:38.433Z,0.86
2018-12-05T23:00:10.120Z,0.80
2018-12-05T23:02:39.581Z,0.76
2018-12-05T23:05:09.290Z,0.84
2018-12-05T23:07:38.859Z,0.81
2018-12-05T23:10:08.871Z,0.73
2018-12-05T23:12:38.587Z,0.70
2018-12-05T23:15:08.261Z,0.77
2018-12-05T23:17:38.107Z,0.75
2018-12-05T23:20:08.061Z,0.74
2018-12-05T23:22:37.759Z,0.67
2018-12-05T23:25:07.923Z,0.67
2018-12-05T23:27:37.809Z,0.59
2018-12-05T23:30:07.617Z,0.51
2018-12-05T23:32:37.371Z,0.51
2018-12-05T23:35:06.841Z,0.42
2018-12-05T23:37:36.340Z,0.45
2018-12-05T23:40:06.188Z,0.49
2018-12-05T23:42:35.634Z,0.47
2018-12-05T23:45:05.099Z,0.42
2018-12-05T23:47:35.204Z,0.51
2018-12-05T23:50:04.824Z,0.47
2018-12-05T23:52:34.503Z,0.47
2018-12-05T23:55:03.984Z,0.49
2018-12-05T23:57:33.571Z,0.54
